Time;durP1;ratioP1;P1;durP2;ratioP2;P2;SDS_P1;SDS_P2;PMS_P1;PMS_P2;Temp;Humidity;BMP_temperature;BMP_pressure;BME280_temperature;BME280_humidity;BME280_pressure;Samples;Min_cycle;Max_cycle;Signal;HPM_P1;HPM_P2
2023/03/26 00:01:23;;;;;;;9.50;9.17;;;9.70;1.00;;;;;;5060400;28;20492;-79
2023/03/26 00:03:53;;;;;;;9.30;9.00;;;9.70;1.00;;;;;;5057537;28;21020;-80
2023/03/26 00:06:25;;;;;;;9.70;9.20;;;9.70;1.00;;;;;;5055852;28;20482;-81
2023/03/26 00:08:53;;;;;;;9.10;8.80;;;9.70;1.00;;;;;;5054669;28;20489;-79
2023/03/26 00:11:23;;;;;;;9.70;9.30;;;9.70;1.00;;;;;;5059618;28;20515;-80
2023/03/26 00:13:52;;;;;;;9.50;9.27;;;9.60;34.10;;;;;;5057549;28;20266;-79
2023/03/26 00:16:20;;;;;;;8.90;8.70;;;9.60;99.90;;;;;;5057992;28;20760;-79
2023/03/26 00:18:50;;;;;;;9.50;9.10;;;9.70;1.00;;;;;;5054330;28;21124;-81
2023/03/26 00:21:20;;;;;;;9.03;8.80;;;9.70;1.00;;;;;;5055324;28;23193;-82
2023/03/26 00:23:52;;;;;;;9.53;9.13;;;9.80;1.00;;;;;;5058525;28;20451;-78
2023/03/26 00:26:21;;;;;;;8.83;8.53;;;9.80;1.00;;;;;;5056164;28;21040;-81
2023/03/26 00:28:49;;;;;;;9.37;9.00;;;9.80;99.90;;;;;;5058281;28;20474;-78
2023/03/26 00:31:18;;;;;;;9.07;8.77;;;9.80;1.00;;;;;;5058374;28;20522;-79
2023/03/26 00:33:46;;;;;;;9.30;9.00;;;9.80;1.00;;;;;;5058562;28;20463;-78
2023/03/26 00:36:18;;;;;;;9.20;8.80;;;9.80;1.00;;;;;;5060582;28;20467;-81
2023/03/26 00:38:48;;;;;;;9.77;9.37;;;9.90;1.00;;;;;;5058072;28;20461;-80
2023/03/26 00:41:21;;;;;;;9.30;9.00;;;9.90;99.90;;;;;;5052333;28;20535;-76
2023/03/26 00:43:52;;;;;;;9.07;8.70;;;9.80;99.90;;;;;;5058327;28;20465;-80
2023/03/26 00:46:20;;;;;;;9.93;9.47;;;9.70;1.00;;;;;;5056185;28;20474;-82
2023/03/26 00:48:49;;;;;;;9.77;9.27;;;9.60;1.00;;;;;;5053257;28;20479;-80
2023/03/26 00:51:19;;;;;;;9.83;9.27;;;9.70;7.90;;;;;;5045813;28;20509;-77
2023/03/26 00:53:50;;;;;;;9.23;8.93;;;9.70;1.00;;;;;;5058996;28;20811;-78
2023/03/26 00:56:19;;;;;;;9.50;9.10;;;9.80;1.00;;;;;;5046892;28;20495;-78
2023/03/26 00:58:48;;;;;;;9.70;9.20;;;9.80;1.00;;;;;;5050647;28;20446;-78
2023/03/26 01:01:25;;;;;;;9.40;9.00;;;9.80;1.00;;;;;;5063924;28;20556;-78
2023/03/26 01:03:58;;;;;;;9.37;8.67;;;9.70;1.00;;;;;;5061542;28;20449;-79
2023/03/26 01:06:40;;;;;;;9.47;9.07;;;9.70;1.00;;;;;;5055511;28;20469;-81
2023/03/26 01:09:15;;;;;;;9.20;8.80;;;9.70;1.00;;;;;;5056085;28;20457;-77
2023/03/26 01:11:44;;;;;;;9.27;8.97;;;9.80;1.00;;;;;;5056514;28;20484;-81
2023/03/26 01:14:16;;;;;;;9.20;9.00;;;9.80;1.00;;;;;;5056152;28;20453;-78
2023/03/26 01:16:50;;;;;;;9.40;8.80;;;9.70;1.00;;;;;;5061813;28;20495;-79
2023/03/26 01:19:29;;;;;;;9.40;8.90;;;9.70;1.00;;;;;;5062746;28;20489;-80
2023/03/26 01:21:59;;;;;;;9.10;8.80;;;9.70;1.00;;;;;;5061074;28;20461;-78
2023/03/26 01:24:29;;;;;;;9.20;8.90;;;9.70;1.00;;;;;;5056449;28;20455;-76
2023/03/26 01:27:24;;;;;;;9.10;8.70;;;9.70;1.00;;;;;;5058146;28;20531;-77
2023/03/26 01:29:55;;;;;;;9.27;8.83;;;9.80;1.00;;;;;;5061866;28;20471;-77
2023/03/26 01:32:36;;;;;;;9.20;8.63;;;9.80;1.00;;;;;;5065360;28;20465;-77
2023/03/26 01:35:16;;;;;;;9.37;8.97;;;9.80;1.00;;;;;;5060398;28;20459;-78
2023/03/26 01:37:57;;;;;;;8.97;8.70;;;9.80;1.00;;;;;;5054329;28;21223;-80
2023/03/26 01:40:37;;;;;;;9.33;8.93;;;9.80;1.00;;;;;;5059671;28;20492;-79
2023/03/26 01:43:10;;;;;;;9.13;8.60;;;9.70;1.00;;;;;;5058526;28;20540;-79
2023/03/26 01:45:41;;;;;;;8.63;8.20;;;9.70;1.00;;;;;;5061107;28;20442;-78
2023/03/26 01:48:09;;;;;;;8.87;8.43;;;9.80;1.00;;;;;;5062631;28;20502;-79
2023/03/26 01:50:37;;;;;;;9.03;8.60;;;9.80;99.90;;;;;;5063250;28;20454;-81
2023/03/26 01:53:07;;;;;;;8.93;8.40;;;9.70;99.90;;;;;;5058363;28;20451;-78
2023/03/26 01:55:48;;;;;;;8.83;8.53;;;9.70;1.00;;;;;;5059627;28;20451;-80
2023/03/26 01:58:26;;;;;;;9.33;8.93;;;9.70;99.90;;;;;;5057368;28;20453;-78
2023/03/26 02:01:03;;;;;;;8.90;8.50;;;9.60;1.00;;;;;;5050067;28;20492;-79
2023/03/26 02:03:38;;;;;;;8.60;8.30;;;9.70;99.90;;;;;;5049105;28;20488;-79
2023/03/26 02:06:14;;;;;;;9.27;8.63;;;9.50;99.90;;;;;;5049739;28;20463;-80
2023/03/26 02:08:47;;;;;;;8.97;8.33;;;9.60;1.00;;;;;;5055267;28;20458;-80
2023/03/26 02:11:17;;;;;;;8.90;8.50;;;9.60;1.00;;;;;;5057388;28;20442;-79
2023/03/26 02:13:47;;;;;;;8.43;8.23;;;9.70;1.00;;;;;;5059042;28;20468;-79
2023/03/26 02:16:17;;;;;;;8.90;8.50;;;9.60;99.90;;;;;;5060041;28;20527;-80
2023/03/26 02:18:46;;;;;;;8.73;8.50;;;9.60;99.90;;;;;;5061766;28;20457;-79
2023/03/26 02:21:18;;;;;;;8.40;8.10;;;9.50;1.00;;;;;;5060893;28;22444;-77
2023/03/26 02:23:49;;;;;;;8.80;8.40;;;9.60;1.00;;;;;;5065487;28;20532;-78
2023/03/26 02:26:20;;;;;;;9.70;8.80;;;9.60;1.00;;;;;;5055990;28;20481;-79
2023/03/26 02:28:48;;;;;;;8.90;8.57;;;9.50;1.00;;;;;;5055813;28;20496;-79
2023/03/26 02:31:19;;;;;;;8.40;8.10;;;9.40;1.00;;;;;;5061424;28;20480;-79
2023/03/26 02:33:48;;;;;;;9.10;8.50;;;9.40;1.00;;;;;;5058547;28;20511;-81
2023/03/26 02:36:18;;;;;;;9.47;8.77;;;9.40;1.00;;;;;;5060655;28;20484;-79
2023/03/26 02:38:46;;;;;;;8.97;8.50;;;9.50;1.00;;;;;;5063389;28;20464;-81
2023/03/26 02:41:14;;;;;;;8.73;8.53;;;9.40;1.00;;;;;;5058626;28;20504;-79
2023/03/26 02:43:44;;;;;;;9.13;8.63;;;9.40;1.00;;;;;;5055270;28;22321;-78
2023/03/26 02:46:12;;;;;;;8.90;8.70;;;9.40;1.00;;;;;;5059593;28;20566;-80
2023/03/26 02:48:41;;;;;;;8.90;8.60;;;9.40;1.00;;;;;;5059455;28;20465;-77
2023/03/26 02:51:09;;;;;;;9.37;9.07;;;9.40;1.00;;;;;;5061488;28;20975;-78
2023/03/26 02:53:38;;;;;;;9.33;8.83;;;9.50;1.00;;;;;;5060395;28;20457;-79
2023/03/26 02:56:07;;;;;;;9.67;9.27;;;9.40;1.00;;;;;;5056084;28;20507;-79
2023/03/26 02:58:35;;;;;;;8.90;8.50;;;9.40;1.00;;;;;;5060878;28;20489;-79
2023/03/26 03:01:04;;;;;;;9.13;8.87;;;9.40;1.00;;;;;;5061028;28;20482;-80
2023/03/26 03:03:34;;;;;;;10.23;9.53;;;9.40;1.00;;;;;;5062592;28;20450;-81
2023/03/26 03:06:02;;;;;;;10.03;9.53;;;9.40;1.00;;;;;;5058106;28;20622;-79
2023/03/26 03:08:30;;;;;;;9.40;9.03;;;9.40;1.00;;;;;;5060655;28;20541;-78
2023/03/26 03:10:59;;;;;;;9.67;9.27;;;9.40;1.00;;;;;;5060197;28;20804;-77
2023/03/26 03:13:28;;;;;;;9.93;9.40;;;9.40;1.00;;;;;;5061188;28;21229;-79
2023/03/26 03:15:56;;;;;;;9.40;9.00;;;9.40;1.00;;;;;;5058596;28;20461;-81
2023/03/26 03:18:26;;;;;;;10.90;10.10;;;9.50;1.00;;;;;;5056919;28;20747;-79
2023/03/26 03:20:54;;;;;;;9.63;9.30;;;9.50;1.00;;;;;;5065133;28;20494;-78
2023/03/26 03:23:22;;;;;;;9.33;9.03;;;9.50;1.00;;;;;;5059420;28;20446;-79
2023/03/26 03:25:51;;;;;;;9.90;9.60;;;9.50;1.00;;;;;;5060775;28;20465;-80
2023/03/26 03:28:20;;;;;;;10.13;9.40;;;9.50;1.00;;;;;;5062486;28;20592;-77
2023/03/26 03:30:51;;;;;;;9.20;8.90;;;9.40;1.00;;;;;;5058986;28;20443;-79
2023/03/26 03:33:20;;;;;;;10.07;9.77;;;9.50;1.00;;;;;;5061538;28;20830;-79
2023/03/26 03:35:50;;;;;;;9.60;9.30;;;9.50;1.00;;;;;;5062488;28;20541;-80
2023/03/26 03:38:19;;;;;;;9.33;9.03;;;9.50;1.00;;;;;;5061923;28;20505;-80
2023/03/26 03:40:47;;;;;;;9.30;9.00;;;9.50;1.00;;;;;;5061316;28;20489;-82
2023/03/26 03:43:15;;;;;;;9.70;9.23;;;9.50;62.00;;;;;;5061326;28;20469;-79
2023/03/26 03:45:43;;;;;;;9.63;9.23;;;9.50;99.90;;;;;;5060627;28;20506;-77
2023/03/26 03:48:11;;;;;;;9.77;9.47;;;9.50;53.70;;;;;;5060926;28;20474;-81
2023/03/26 03:50:39;;;;;;;9.50;9.10;;;9.50;32.50;;;;;;5058947;28;20521;-78
2023/03/26 03:53:09;;;;;;;9.23;8.83;;;9.50;14.60;;;;;;5058716;28;22295;-79
2023/03/26 03:55:40;;;;;;;9.53;9.20;;;9.40;99.90;;;;;;5063867;28;20457;-76
2023/03/26 03:58:09;;;;;;;9.87;9.47;;;9.40;33.70;;;;;;5060689;28;20956;-81
2023/03/26 04:00:40;;;;;;;9.50;9.10;;;9.50;12.30;;;;;;5053911;28;20454;-80
2023/03/26 04:03:13;;;;;;;9.60;9.20;;;9.40;1.00;;;;;;5060406;28;21162;-77
2023/03/26 04:05:42;;;;;;;9.10;8.87;;;9.40;1.00;;;;;;5058679;28;20461;-83
2023/03/26 04:08:12;;;;;;;9.43;9.03;;;9.40;1.00;;;;;;5056670;28;20481;-80
2023/03/26 04:10:42;;;;;;;9.50;9.20;;;9.40;3.00;;;;;;5054960;28;20581;-79
2023/03/26 04:13:13;;;;;;;9.00;8.80;;;9.50;1.00;;;;;;5062057;28;20587;-80
2023/03/26 04:15:42;;;;;;;10.03;9.50;;;9.40;1.00;;;;;;5058015;28;20987;-80
2023/03/26 04:18:10;;;;;;;9.47;9.17;;;9.50;1.00;;;;;;5059158;28;20478;-80
2023/03/26 04:20:40;;;;;;;9.80;9.40;;;9.50;1.00;;;;;;5063208;28;20494;-78
2023/03/26 04:23:12;;;;;;;9.90;9.30;;;9.50;1.00;;;;;;5062671;28;20545;-77
2023/03/26 04:25:44;;;;;;;10.00;9.50;;;9.50;1.00;;;;;;5060865;28;20516;-81
2023/03/26 04:28:22;;;;;;;8.63;8.43;;;9.50;1.00;;;;;;5055377;28;20476;-79
2023/03/26 04:30:52;;;;;;;9.60;9.20;;;9.50;99.90;;;;;;5061112;28;20483;-79
2023/03/26 04:33:21;;;;;;;9.90;9.30;;;9.40;1.00;;;;;;5059820;28;20453;-81
2023/03/26 04:35:49;;;;;;;9.70;9.23;;;9.40;1.00;;;;;;5057140;28;20559;-79
2023/03/26 04:38:17;;;;;;;9.53;9.23;;;9.40;1.00;;;;;;5061525;28;20456;-79
2023/03/26 04:40:47;;;;;;;9.83;9.10;;;9.40;1.00;;;;;;5061561;28;20609;-80
2023/03/26 04:43:18;;;;;;;9.63;9.20;;;9.40;1.00;;;;;;5058656;28;20456;-81
2023/03/26 04:45:46;;;;;;;11.23;10.60;;;9.50;99.90;;;;;;5059663;28;20451;-82
2023/03/26 04:48:15;;;;;;;9.70;9.00;;;9.50;99.90;;;;;;5061456;28;20469;-79
2023/03/26 04:50:44;;;;;;;9.70;9.10;;;9.50;99.90;;;;;;5062095;28;20449;-79
2023/03/26 04:53:16;;;;;;;10.63;10.13;;;9.50;99.90;;;;;;5059278;28;20540;-79
2023/03/26 04:55:51;;;;;;;9.83;9.30;;;9.50;99.90;;;;;;5057411;28;20472;-77
2023/03/26 04:58:20;;;;;;;9.67;9.00;;;9.50;99.90;;;;;;5052310;28;20481;-80
2023/03/26 05:00:48;;;;;;;9.77;8.97;;;9.50;99.90;;;;;;5057881;28;20491;-79
2023/03/26 05:03:19;;;;;;;9.40;8.97;;;9.50;99.90;;;;;;5064224;28;20483;-78
2023/03/26 05:05:48;;;;;;;8.97;8.70;;;9.40;99.90;;;;;;5061598;28;20489;-80
2023/03/26 05:08:16;;;;;;;9.27;8.77;;;9.40;99.90;;;;;;5061931;28;20480;-80
2023/03/26 05:10:44;;;;;;;9.37;8.80;;;9.40;99.90;;;;;;5063611;28;20497;-79
2023/03/26 05:13:17;;;;;;;9.20;8.60;;;9.50;99.90;;;;;;5063488;28;20470;-77
2023/03/26 05:15:45;;;;;;;9.37;8.73;;;9.40;99.90;;;;;;5066583;28;20480;-79
2023/03/26 05:18:13;;;;;;;10.80;9.70;;;9.50;99.90;;;;;;5067942;28;20493;-79
2023/03/26 05:20:42;;;;;;;9.03;8.77;;;9.50;99.90;;;;;;5061400;28;20450;-77
2023/03/26 05:23:10;;;;;;;10.17;9.57;;;9.50;99.90;;;;;;5062644;28;20489;-78
2023/03/26 05:25:38;;;;;;;8.97;8.70;;;9.40;99.90;;;;;;5063508;28;20509;-79
2023/03/26 05:28:07;;;;;;;9.73;9.33;;;9.40;1.00;;;;;;5064266;28;20487;-79
2023/03/26 05:30:36;;;;;;;9.10;8.90;;;9.40;99.90;;;;;;5059606;28;20469;-78
2023/03/26 05:33:05;;;;;;;9.30;9.00;;;9.40;1.00;;;;;;5059490;28;20452;-79
2023/03/26 05:35:33;;;;;;;9.40;8.90;;;9.40;1.00;;;;;;5055796;28;20493;-78
2023/03/26 05:38:02;;;;;;;9.63;9.30;;;9.40;1.00;;;;;;5061833;28;20470;-79
2023/03/26 05:40:31;;;;;;;9.70;9.30;;;9.40;1.00;;;;;;5058433;28;20755;-77
2023/03/26 05:43:00;;;;;;;9.50;9.13;;;9.40;99.90;;;;;;5064301;28;21069;-80
2023/03/26 05:45:28;;;;;;;10.03;9.43;;;9.40;99.90;;;;;;5062975;28;20453;-78
2023/03/26 05:47:57;;;;;;;9.40;9.10;;;9.50;99.90;;;;;;5058128;28;20583;-80
2023/03/26 05:50:26;;;;;;;9.80;9.30;;;9.50;99.90;;;;;;5060523;28;21194;-81
2023/03/26 05:52:54;;;;;;;10.00;9.23;;;9.40;99.90;;;;;;5059848;28;20455;-78
2023/03/26 05:55:22;;;;;;;9.77;9.37;;;9.40;99.90;;;;;;5062413;28;20467;-79
2023/03/26 05:57:50;;;;;;;10.60;10.00;;;9.40;99.90;;;;;;5060951;28;20847;-79
2023/03/26 06:00:18;;;;;;;9.83;9.23;;;9.40;99.90;;;;;;5060843;28;20545;-77
2023/03/26 06:02:46;;;;;;;10.23;9.40;;;9.40;99.90;;;;;;5061136;28;20541;-79
2023/03/26 06:05:16;;;;;;;9.93;9.40;;;9.50;99.90;;;;;;5062767;28;20453;-79
2023/03/26 06:07:44;;;;;;;9.40;9.00;;;9.50;99.90;;;;;;5058838;28;20513;-77
2023/03/26 06:10:13;;;;;;;9.40;9.10;;;9.50;99.90;;;;;;5057661;28;20493;-78
2023/03/26 06:12:46;;;;;;;9.80;9.30;;;9.50;99.40;;;;;;5059012;28;22530;-78
2023/03/26 06:15:14;;;;;;;9.53;9.20;;;9.50;36.40;;;;;;5063522;28;20450;-80
2023/03/26 06:17:42;;;;;;;9.73;9.40;;;9.50;20.00;;;;;;5063116;28;20471;-78
2023/03/26 06:20:12;;;;;;;9.70;9.10;;;9.50;1.00;;;;;;5061282;28;20468;-79
2023/03/26 06:22:42;;;;;;;9.23;8.80;;;9.60;1.00;;;;;;5061653;28;20479;-81
2023/03/26 06:25:10;;;;;;;8.60;8.20;;;9.50;1.00;;;;;;5061868;28;20479;-80
2023/03/26 06:27:38;;;;;;;9.87;9.40;;;9.60;1.00;;;;;;5064300;28;21200;-77
2023/03/26 06:30:08;;;;;;;9.37;8.90;;;9.60;1.00;;;;;;5061193;28;21311;-80
2023/03/26 06:32:36;;;;;;;9.30;8.90;;;9.60;1.00;;;;;;5064793;28;20449;-77
2023/03/26 06:35:05;;;;;;;9.27;8.97;;;9.60;1.00;;;;;;5063969;28;20876;-81
2023/03/26 06:37:33;;;;;;;8.90;8.60;;;9.60;1.00;;;;;;5062143;28;20474;-78
2023/03/26 06:40:02;;;;;;;9.00;8.70;;;9.60;1.00;;;;;;5060052;28;20515;-80
2023/03/26 06:42:30;;;;;;;9.20;8.80;;;9.60;1.00;;;;;;5061647;28;20647;-79
2023/03/26 06:45:19;;;;;;;9.80;9.20;;;9.70;1.00;;;;;;5060080;28;20535;-79
2023/03/26 06:47:47;;;;;;;8.80;8.40;;;9.70;1.00;;;;;;5063871;28;20476;-79
2023/03/26 06:50:15;;;;;;;8.70;8.40;;;9.70;1.00;;;;;;5062023;28;20460;-79
2023/03/26 06:52:43;;;;;;;10.50;9.60;;;9.70;1.00;;;;;;5062126;28;20458;-81
2023/03/26 06:55:14;;;;;;;9.30;8.93;;;9.60;1.00;;;;;;5063536;28;20464;-78
2023/03/26 06:57:44;;;;;;;9.60;9.20;;;9.60;1.00;;;;;;5057941;28;20474;-80
2023/03/26 07:00:13;;;;;;;9.43;9.13;;;9.60;1.00;;;;;;5059636;28;20461;-80
2023/03/26 07:02:41;;;;;;;9.77;9.37;;;9.50;1.00;;;;;;5056433;28;20506;-78
2023/03/26 07:05:10;;;;;;;9.77;9.20;;;9.50;1.00;;;;;;5060947;28;20485;-81
2023/03/26 07:07:38;;;;;;;20.73;17.27;;;9.50;1.00;;;;;;5059607;28;20469;-77
2023/03/26 07:10:15;;;;;;;11.53;10.47;;;9.50;1.00;;;;;;5058543;28;20528;-79
2023/03/26 07:12:43;;;;;;;10.17;9.50;;;9.60;16.10;;;;;;5058494;28;20462;-78
2023/03/26 07:15:11;;;;;;;10.20;9.70;;;9.50;21.40;;;;;;5059790;28;20437;-78
2023/03/26 07:17:45;;;;;;;10.37;9.87;;;9.50;17.40;;;;;;5059493;28;20487;-82
2023/03/26 07:20:18;;;;;;;9.87;9.30;;;9.50;99.90;;;;;;5076723;28;20455;-78
2023/03/26 07:22:46;;;;;;;9.83;9.53;;;9.50;99.90;;;;;;5060840;28;20485;-78
2023/03/26 07:25:18;;;;;;;9.93;9.17;;;9.50;99.90;;;;;;5064112;28;20971;-81
2023/03/26 07:28:00;;;;;;;10.03;9.70;;;9.50;99.90;;;;;;5064433;28;20489;-79
2023/03/26 07:30:39;;;;;;;9.37;8.97;;;9.50;99.90;;;;;;5069028;28;20466;-80
2023/03/26 07:33:14;;;;;;;10.43;9.87;;;9.40;99.90;;;;;;5067212;28;20867;-82
2023/03/26 07:35:48;;;;;;;10.47;9.80;;;9.40;1.00;;;;;;5059630;28;20456;-82
2023/03/26 07:38:35;;;;;;;9.50;9.10;;;9.40;1.00;;;;;;5066527;28;20471;-81
2023/03/26 07:41:15;;;;;;;10.00;9.70;;;9.30;1.00;;;;;;5060802;28;20448;-79
2023/03/26 07:44:08;;;;;;;10.20;9.70;;;9.30;1.00;;;;;;5056577;28;20486;-82
2023/03/26 07:46:38;;;;;;;9.63;9.33;;;9.30;99.90;;;;;;5054892;28;20571;-78
2023/03/26 07:49:09;;;;;;;10.23;9.80;;;9.30;99.90;;;;;;5063640;28;20449;-80
2023/03/26 07:51:38;;;;;;;10.40;10.00;;;9.40;1.00;;;;;;5065376;28;20885;-78
2023/03/26 07:54:08;;;;;;;10.10;9.83;;;9.40;99.90;;;;;;5063884;28;20460;-80
2023/03/26 07:56:42;;;;;;;9.83;9.53;;;9.30;1.00;;;;;;5059602;28;20489;-78
2023/03/26 07:59:20;;;;;;;10.37;9.97;;;9.30;99.90;;;;;;5064264;28;20457;-80
2023/03/26 08:02:18;;;;;;;10.33;10.03;;;9.30;99.90;;;;;;5056971;28;20471;-78
2023/03/26 08:05:09;;;;;;;11.87;11.00;;;9.30;46.30;;;;;;5062531;28;21095;-78
2023/03/26 08:07:49;;;;;;;11.20;10.50;;;9.30;1.00;;;;;;5055248;28;20441;-80
2023/03/26 08:10:23;;;;;;;10.97;10.27;;;9.30;99.90;;;;;;5063751;28;20211;-79
2023/03/26 08:13:06;;;;;;;11.10;10.50;;;9.30;1.00;;;;;;5064681;28;20449;-78
2023/03/26 08:15:42;;;;;;;11.20;10.80;;;9.30;1.00;;;;;;5066311;28;20451;-80
2023/03/26 08:18:26;;;;;;;11.00;10.33;;;9.40;99.90;;;;;;5060619;28;20573;-78
2023/03/26 08:21:00;;;;;;;10.50;10.20;;;9.30;7.40;;;;;;5066549;28;20448;-80
2023/03/26 08:23:33;;;;;;;12.73;11.80;;;9.40;1.00;;;;;;5060976;28;20475;-76
2023/03/26 08:26:26;;;;;;;12.40;11.60;;;9.40;1.00;;;;;;5064746;28;20557;-78
2023/03/26 08:29:04;;;;;;;11.70;11.20;;;9.30;1.00;;;;;;5064606;28;20457;-80
2023/03/26 08:31:35;;;;;;;12.30;11.30;;;9.30;1.00;;;;;;5063677;28;20478;-80
2023/03/26 08:34:03;;;;;;;12.20;11.53;;;9.30;35.60;;;;;;5062844;28;20559;-79
2023/03/26 08:36:32;;;;;;;11.83;11.10;;;9.30;1.00;;;;;;5062246;28;21241;-79
2023/03/26 08:39:00;;;;;;;11.30;10.80;;;9.30;39.40;;;;;;5064383;28;20597;-79
2023/03/26 08:42:00;;;;;;;11.47;11.07;;;9.30;93.80;;;;;;5064332;28;20462;-82
2023/03/26 08:45:20;;;;;;;11.47;11.07;;;9.30;99.90;;;;;;5066782;28;20473;-78
2023/03/26 08:48:17;;;;;;;12.20;11.73;;;9.40;99.90;;;;;;5055388;28;20955;-80
2023/03/26 08:51:21;;;;;;;12.40;11.80;;;9.50;99.90;;;;;;5060327;28;20453;-80
2023/03/26 08:54:31;;;;;;;12.57;11.83;;;9.40;17.10;;;;;;5048675;28;20522;-79
2023/03/26 08:57:15;;;;;;;12.00;11.50;;;9.60;99.90;;;;;;5025658;28;20473;-80
2023/03/26 09:00:04;;;;;;;12.40;11.70;;;9.60;99.90;;;;;;5065667;28;20564;-81
2023/03/26 09:02:59;;;;;;;13.40;12.83;;;9.60;1.00;;;;;;5066475;28;20827;-75
2023/03/26 09:06:01;;;;;;;11.77;11.50;;;9.70;1.00;;;;;;5067634;28;20498;-75
2023/03/26 09:09:03;;;;;;;12.30;11.90;;;9.80;99.90;;;;;;5039832;28;21028;-77
2023/03/26 09:12:16;;;;;;;12.97;12.47;;;9.70;99.90;;;;;;5053663;28;20453;-75
2023/03/26 09:15:17;;;;;;;13.03;12.73;;;10.00;1.00;;;;;;5063700;28;20462;-78
2023/03/26 09:18:27;;;;;;;12.77;12.40;;;10.40;1.00;;;;;;5061571;28;20489;-78
2023/03/26 09:21:35;;;;;;;13.63;13.17;;;10.60;99.90;;;;;;5035986;28;20466;-76
2023/03/26 09:24:35;;;;;;;13.63;13.10;;;10.70;24.90;;;;;;5064093;28;20513;-78
2023/03/26 09:27:14;;;;;;;12.87;12.57;;;10.80;1.00;;;;;;5060550;28;20474;-78
2023/03/26 09:30:28;;;;;;;13.47;12.97;;;11.00;99.90;;;;;;5056546;28;20450;-80
2023/03/26 09:33:26;;;;;;;12.83;12.57;;;11.00;99.90;;;;;;4953736;28;20527;-76
2023/03/26 09:36:10;;;;;;;12.70;12.40;;;11.00;99.90;;;;;;5052056;28;20466;-79
2023/03/26 09:38:52;;;;;;;13.13;12.83;;;11.30;1.00;;;;;;5057065;28;20454;-78
2023/03/26 09:41:35;;;;;;;13.10;12.70;;;11.40;99.90;;;;;;5059176;28;20564;-80
2023/03/26 09:44:42;;;;;;;13.47;13.07;;;11.40;1.00;;;;;;5057093;28;20474;-79
2023/03/26 09:47:33;;;;;;;12.93;12.63;;;11.90;99.90;;;;;;5058661;28;20466;-78
2023/03/26 09:50:30;;;;;;;13.40;12.90;;;11.90;1.00;;;;;;5061761;28;20995;-79
2023/03/26 09:53:12;;;;;;;13.43;13.03;;;12.00;99.90;;;;;;5061358;28;21007;-77
2023/03/26 09:56:03;;;;;;;13.57;13.07;;;12.10;99.90;;;;;;5058960;28;20450;-77
2023/03/26 09:58:50;;;;;;;12.73;12.40;;;12.10;99.90;;;;;;5058522;28;20451;-79
2023/03/26 10:01:30;;;;;;;12.70;12.40;;;12.10;99.90;;;;;;5058253;28;20470;-78
2023/03/26 10:04:22;;;;;;;12.77;12.47;;;12.00;99.90;;;;;;5058389;28;20478;-78
2023/03/26 10:06:59;;;;;;;12.70;12.50;;;11.90;99.90;;;;;;5057056;28;20492;-79
2023/03/26 10:09:47;;;;;;;13.30;12.80;;;11.90;99.90;;;;;;5058955;28;20456;-78
2023/03/26 10:12:28;;;;;;;13.20;12.80;;;12.30;99.90;;;;;;5050651;28;20462;-77
2023/03/26 10:15:07;;;;;;;12.70;12.30;;;12.70;99.90;;;;;;5063306;28;20451;-77
2023/03/26 10:17:51;;;;;;;13.53;13.20;;;12.90;83.50;;;;;;5060400;28;20490;-77
2023/03/26 10:20:37;;;;;;;12.43;12.17;;;13.20;1.00;;;;;;5052408;28;20444;-80
2023/03/26 10:23:24;;;;;;;12.70;12.47;;;13.20;1.00;;;;;;5059537;28;20462;-77
2023/03/26 10:26:07;;;;;;;12.53;12.23;;;13.20;1.00;;;;;;5057138;28;20482;-80
2023/03/26 10:28:53;;;;;;;12.60;12.20;;;13.00;1.00;;;;;;5059807;28;20473;-78
2023/03/26 10:31:35;;;;;;;12.20;12.00;;;13.00;1.00;;;;;;5062107;28;20807;-78
2023/03/26 10:34:11;;;;;;;12.20;11.97;;;13.00;99.90;;;;;;5067052;28;20464;-79
2023/03/26 10:37:07;;;;;;;12.20;12.00;;;13.20;99.90;;;;;;5065021;28;20472;-76
2023/03/26 10:40:08;;;;;;;12.70;12.30;;;13.50;99.90;;;;;;5064000;28;21206;-81
2023/03/26 10:43:07;;;;;;;11.90;11.70;;;13.50;99.90;;;;;;5061274;28;20465;-79
2023/03/26 10:45:57;;;;;;;12.57;12.17;;;13.80;99.90;;;;;;5063866;28;20561;-79
2023/03/26 10:48:48;;;;;;;12.17;11.97;;;13.90;99.90;;;;;;5066566;28;20480;-77
2023/03/26 10:51:41;;;;;;;11.60;11.30;;;13.80;99.90;;;;;;5063669;28;20464;-78
2023/03/26 10:54:19;;;;;;;11.40;11.10;;;13.60;99.90;;;;;;5058628;28;20499;-80
2023/03/26 10:56:49;;;;;;;10.80;10.60;;;13.70;99.90;;;;;;5064130;28;20876;-80
2023/03/26 10:59:18;;;;;;;11.40;11.10;;;13.90;99.90;;;;;;5064965;28;20522;-77
2023/03/26 11:01:58;;;;;;;10.83;10.47;;;13.80;99.90;;;;;;5065196;28;20474;-77
2023/03/26 11:04:33;;;;;;;10.63;10.33;;;13.80;99.90;;;;;;5065542;28;20440;-78
2023/03/26 11:07:12;;;;;;;11.10;10.70;;;13.80;99.90;;;;;;5067257;28;20471;-78
2023/03/26 11:09:45;;;;;;;9.67;9.47;;;13.80;99.90;;;;;;5065981;28;20450;-79
2023/03/26 11:12:22;;;;;;;10.00;9.70;;;13.60;99.90;;;;;;5065986;28;20461;-80
2023/03/26 11:15:05;;;;;;;9.87;9.67;;;13.60;99.90;;;;;;5066086;28;20449;-80
2023/03/26 11:17:48;;;;;;;10.70;10.40;;;13.60;99.90;;;;;;5062881;28;20482;-78
2023/03/26 11:20:22;;;;;;;10.30;10.10;;;13.50;99.90;;;;;;5065291;28;20487;-79
2023/03/26 11:23:08;;;;;;;10.40;10.20;;;13.50;99.90;;;;;;5067698;28;20447;-80
2023/03/26 11:25:54;;;;;;;10.07;9.87;;;13.70;99.90;;;;;;5066021;28;20480;-77
2023/03/26 11:28:38;;;;;;;11.03;10.73;;;13.80;99.90;;;;;;5065215;28;20473;-76
2023/03/26 11:31:18;;;;;;;10.60;10.40;;;13.80;99.90;;;;;;5065293;28;20470;-78
2023/03/26 11:33:51;;;;;;;9.87;9.63;;;13.90;99.90;;;;;;5065182;28;20489;-78
2023/03/26 11:36:26;;;;;;;9.93;9.60;;;13.80;99.90;;;;;;5064532;28;20473;-79
2023/03/26 11:38:57;;;;;;;9.37;9.17;;;13.60;99.90;;;;;;5067035;28;21159;-78
2023/03/26 11:41:29;;;;;;;9.80;9.60;;;13.70;99.90;;;;;;5065796;28;20867;-78
2023/03/26 11:44:01;;;;;;;10.23;9.93;;;13.50;99.90;;;;;;5066752;28;20455;-77
2023/03/26 11:46:30;;;;;;;9.63;9.47;;;13.70;99.90;;;;;;5061419;28;20494;-79
2023/03/26 11:49:08;;;;;;;10.10;9.90;;;13.60;99.90;;;;;;5065356;28;20461;-77
2023/03/26 11:51:38;;;;;;;9.60;9.30;;;13.70;99.90;;;;;;5064864;28;20517;-78
2023/03/26 11:54:09;;;;;;;8.87;8.77;;;13.80;99.90;;;;;;5063493;28;20507;-79
2023/03/26 11:56:44;;;;;;;8.90;8.70;;;13.90;99.90;;;;;;5064332;28;20472;-80
2023/03/26 11:59:37;;;;;;;9.73;9.30;;;13.90;99.90;;;;;;5065961;28;20450;-78
2023/03/26 12:02:31;;;;;;;8.93;8.70;;;13.90;99.90;;;;;;5059317;28;20472;-77
2023/03/26 12:05:23;;;;;;;8.80;8.60;;;13.70;99.90;;;;;;5063834;28;20479;-79
2023/03/26 12:07:56;;;;;;;8.80;8.40;;;13.70;99.90;;;;;;5063940;28;20577;-79
2023/03/26 12:10:29;;;;;;;7.80;7.60;;;13.80;99.90;;;;;;5063106;28;20855;-78
2023/03/26 12:13:01;;;;;;;8.90;8.50;;;13.90;99.90;;;;;;5063955;28;20959;-77
2023/03/26 12:15:31;;;;;;;8.27;7.90;;;14.00;99.90;;;;;;5066480;28;20992;-76
2023/03/26 12:18:17;;;;;;;8.50;8.30;;;14.20;99.90;;;;;;5064979;28;20509;-75
2023/03/26 12:20:48;;;;;;;7.80;7.60;;;14.20;99.90;;;;;;5062392;28;20499;-78
2023/03/26 12:23:35;;;;;;;7.50;7.40;;;14.20;99.90;;;;;;5061342;28;20459;-78
2023/03/26 12:26:15;;;;;;;7.60;7.40;;;14.20;99.90;;;;;;5064417;28;20487;-77
2023/03/26 12:28:48;;;;;;;7.57;7.37;;;14.20;99.90;;;;;;5062905;28;20457;-78
2023/03/26 12:31:18;;;;;;;7.70;7.50;;;14.20;99.90;;;;;;5067175;28;20545;-79
2023/03/26 12:34:04;;;;;;;7.40;7.30;;;14.20;99.90;;;;;;5064520;28;20459;-76
2023/03/26 12:36:35;;;;;;;7.60;7.40;;;14.30;99.90;;;;;;5065232;28;20469;-79
2023/03/26 12:39:31;;;;;;;7.63;7.43;;;14.30;99.90;;;;;;5061860;28;20661;-77
2023/03/26 12:42:28;;;;;;;7.10;7.00;;;14.50;99.90;;;;;;5057785;28;21182;-76
2023/03/26 12:45:16;;;;;;;7.20;7.00;;;14.50;99.90;;;;;;5063437;28;21074;-78
2023/03/26 12:47:44;;;;;;;7.30;7.10;;;14.50;99.90;;;;;;5064953;28;21323;-78
2023/03/26 12:50:39;;;;;;;7.10;7.00;;;14.40;99.90;;;;;;5065480;28;20831;-79
2023/03/26 12:53:23;;;;;;;7.20;7.10;;;14.50;99.90;;;;;;5064241;28;20464;-79
2023/03/26 12:56:00;;;;;;;7.00;6.80;;;14.60;99.90;;;;;;5063407;28;20445;-76
2023/03/26 12:58:58;;;;;;;7.50;7.30;;;14.70;99.90;;;;;;5060984;28;20457;-77
2023/03/26 13:01:38;;;;;;;6.90;6.70;;;14.80;99.90;;;;;;5065182;28;20918;-78
2023/03/26 13:04:24;;;;;;;8.57;8.00;;;14.80;99.90;;;;;;5064017;28;20456;-78
2023/03/26 13:06:57;;;;;;;6.60;6.40;;;14.70;99.90;;;;;;5064453;28;20604;-76
2023/03/26 13:09:51;;;;;;;6.97;6.57;;;14.70;99.90;;;;;;5063558;28;20446;-76
2023/03/26 13:12:33;;;;;;;7.40;6.40;;;14.60;99.90;;;;;;5064630;28;20473;-74
2023/03/26 13:15:16;;;;;;;6.50;6.40;;;14.70;99.90;;;;;;5061189;28;20466;-78
2023/03/26 13:17:56;;;;;;;6.43;6.23;;;14.80;99.90;;;;;;5062576;28;20560;-78
2023/03/26 13:20:31;;;;;;;6.20;6.10;;;14.80;99.90;;;;;;5064584;28;20453;-78
2023/03/26 13:23:07;;;;;;;6.37;6.17;;;14.90;99.90;;;;;;5059934;28;20514;-78
2023/03/26 13:25:45;;;;;;;6.00;5.90;;;14.90;99.90;;;;;;5062432;28;20983;-78
2023/03/26 13:28:24;;;;;;;6.10;5.90;;;14.90;99.90;;;;;;5066025;28;20526;-78
2023/03/26 13:31:03;;;;;;;6.03;5.73;;;14.80;99.90;;;;;;5067894;28;20449;-78
2023/03/26 13:33:42;;;;;;;5.90;5.80;;;14.70;99.90;;;;;;5068932;28;20480;-80
2023/03/26 13:36:16;;;;;;;6.40;6.10;;;14.70;99.90;;;;;;5069629;28;20520;-77
2023/03/26 13:39:08;;;;;;;6.10;5.70;;;14.70;98.50;;;;;;5066344;28;20454;-78